createdAt,value
2016-10-07T00:02:39.968Z,1025.92
2016-10-07T00:07:39.917Z,1025.89
2016-10-07T00:12:39.867Z,1025.85
2016-10-07T00:17:39.820Z,1025.8
2016-10-07T00:22:39.762Z,1025.72
2016-10-07T00:27:39.714Z,1025.63
2016-10-07T00:32:39.660Z,1025.63
2016-10-07T00:37:39.610Z,1025.7
2016-10-07T00:42:39.558Z,1025.66
2016-10-07T00:47:39.510Z,1025.6
2016-10-07T00:52:39.454Z,1025.57
2016-10-07T00:57:39.403Z,1025.6
2016-10-07T01:02:39.352Z,1025.52
2016-10-07T01:07:39.302Z,1025.52
2016-10-07T01:12:39.247Z,1025.58
2016-10-07T01:17:39.196Z,1025.55
2016-10-07T01:22:39.145Z,1025.51
2016-10-07T01:27:39.093Z,1025.52
2016-10-07T01:32:39.039Z,1025.52
2016-10-07T01:37:38.986Z,1025.49
2016-10-07T01:42:38.936Z,1025.49
2016-10-07T01:47:38.886Z,1025.44
2016-10-07T01:52:38.830Z,1025.38
2016-10-07T01:57:38.778Z,1025.41
2016-10-07T02:02:38.726Z,1025.32
2016-10-07T02:07:38.674Z,1025.31
2016-10-07T02:12:38.621Z,1025.31
2016-10-07T02:17:38.569Z,1025.22
2016-10-07T02:22:38.519Z,1025.24
2016-10-07T02:27:38.465Z,1025.17
2016-10-07T02:32:38.411Z,1025.21
2016-10-07T02:37:38.359Z,1025.18
2016-10-07T02:42:38.312Z,1025.14
2016-10-07T02:47:38.256Z,1025.04
2016-10-07T02:52:38.203Z,1025.09
2016-10-07T02:57:38.151Z,1025.07
2016-10-07T03:02:38.097Z,1025
2016-10-07T03:07:38.047Z,1024.94
2016-10-07T03:12:37.994Z,1024.87
2016-10-07T03:17:37.940Z,1024.91
2016-10-07T03:22:37.888Z,1024.93
2016-10-07T03:27:37.837Z,1024.94
2016-10-07T03:32:37.785Z,1024.94
2016-10-07T03:37:37.729Z,1024.97
2016-10-07T03:42:37.678Z,1025.06
2016-10-07T03:47:37.627Z,1025.04
2016-10-07T03:52:37.571Z,1024.98
2016-10-07T03:57:37.518Z,1024.95
2016-10-07T04:02:37.464Z,1024.95
2016-10-07T04:07:37.410Z,1024.92
2016-10-07T04:12:37.362Z,1024.84
2016-10-07T04:17:37.304Z,1024.8
2016-10-07T04:22:37.250Z,1024.83
2016-10-07T04:27:37.199Z,1024.86
2016-10-07T04:32:37.143Z,1024.83
2016-10-07T04:37:37.089Z,1024.79
2016-10-07T04:42:37.036Z,1024.75
2016-10-07T04:47:36.983Z,1024.75
2016-10-07T04:52:36.930Z,1024.74
2016-10-07T04:57:36.876Z,1024.82
2016-10-07T05:02:36.830Z,1024.83
2016-10-07T05:07:36.782Z,1024.81
2016-10-07T05:12:36.720Z,1024.76
2016-10-07T05:17:36.670Z,1024.76
2016-10-07T05:22:36.613Z,1024.71
2016-10-07T05:27:36.559Z,1024.6
2016-10-07T05:32:36.509Z,1024.57
2016-10-07T05:37:36.451Z,1024.57
2016-10-07T05:42:36.397Z,1024.52
2016-10-07T05:47:36.343Z,1024.56
2016-10-07T05:52:36.291Z,1024.55
2016-10-07T05:57:36.243Z,1024.54
2016-10-07T06:02:36.190Z,1024.53
2016-10-07T06:07:36.142Z,1024.58
2016-10-07T06:12:36.079Z,1024.53
2016-10-07T06:17:36.024Z,1024.55
2016-10-07T06:22:35.970Z,1024.58
2016-10-07T06:27:35.916Z,1024.55
2016-10-07T06:32:35.861Z,1024.58
2016-10-07T06:37:35.808Z,1024.55
2016-10-07T06:42:35.752Z,1024.57
2016-10-07T06:47:35.698Z,1024.62
2016-10-07T06:52:35.646Z,1024.64
2016-10-07T06:57:35.589Z,1024.68
2016-10-07T07:02:35.547Z,1024.68
2016-10-07T07:07:35.485Z,1024.68
2016-10-07T07:12:35.427Z,1024.69
2016-10-07T07:17:35.374Z,1024.67
2016-10-07T07:22:35.320Z,1024.64
2016-10-07T07:27:35.266Z,1024.6
2016-10-07T07:32:35.212Z,1024.63
2016-10-07T07:37:35.160Z,1024.65
2016-10-07T07:42:35.108Z,1024.66
2016-10-07T07:47:35.050Z,1024.76
2016-10-07T07:52:34.990Z,1024.75
2016-10-07T07:57:34.936Z,1024.74
2016-10-07T08:02:34.882Z,1024.77
2016-10-07T08:07:34.832Z,1024.74
2016-10-07T08:12:34.777Z,1024.72
2016-10-07T08:17:34.723Z,1024.74
2016-10-07T08:22:34.669Z,1024.76
2016-10-07T08:27:34.615Z,1024.78
2016-10-07T08:32:34.562Z,1024.74
2016-10-07T08:37:34.508Z,1024.85
2016-10-07T08:42:34.456Z,1024.83
2016-10-07T08:47:34.401Z,1024.85
2016-10-07T08:52:34.349Z,1024.8
2016-10-07T08:57:34.297Z,1024.78
2016-10-07T09:02:34.246Z,1024.77
2016-10-07T09:07:34.204Z,1024.75
2016-10-07T09:12:34.144Z,1024.8
2016-10-07T09:17:34.092Z,1024.76
2016-10-07T09:22:34.037Z,1024.76
2016-10-07T09:27:33.982Z,1024.74
2016-10-07T09:32:33.928Z,1024.76
2016-10-07T09:37:33.877Z,1024.76
2016-10-07T09:42:33.823Z,1024.78
2016-10-07T09:47:33.767Z,1024.88
2016-10-07T09:52:33.712Z,1024.8
2016-10-07T09:57:33.663Z,1024.88
2016-10-07T10:02:33.605Z,1024.88
2016-10-07T10:07:33.553Z,1024.86
2016-10-07T10:12:33.496Z,1024.88
2016-10-07T10:17:33.442Z,1024.88
2016-10-07T10:22:33.392Z,1024.87
2016-10-07T10:27:33.338Z,1024.9
2016-10-07T10:32:33.282Z,1024.95
2016-10-07T10:37:33.227Z,1024.97
2016-10-07T10:42:33.175Z,1025.01
2016-10-07T10:47:33.123Z,1024.97
2016-10-07T10:52:33.067Z,1024.96
2016-10-07T10:57:33.012Z,1025
2016-10-07T11:02:32.964Z,1025.03
2016-10-07T11:07:32.906Z,1025.02
2016-10-07T11:12:32.852Z,1025
2016-10-07T11:17:32.800Z,1025.04
2016-10-07T11:22:32.746Z,1025.03
2016-10-07T11:27:32.694Z,1025
2016-10-07T11:32:32.642Z,1024.99
2016-10-07T11:37:32.590Z,1024.96
2016-10-07T11:42:32.536Z,1024.93
2016-10-07T11:47:32.484Z,1024.91
2016-10-07T11:52:32.432Z,1024.9
2016-10-07T11:57:32.379Z,1024.82
2016-10-07T12:02:32.326Z,1024.75
2016-10-07T12:07:32.272Z,1024.71
2016-10-07T12:12:32.218Z,1024.6
2016-10-07T12:17:32.169Z,1024.63
2016-10-07T12:22:32.112Z,1024.53
2016-10-07T12:27:32.058Z,1024.54
2016-10-07T12:32:32.005Z,1024.54
2016-10-07T12:37:31.953Z,1024.45
2016-10-07T12:42:31.901Z,1024.37
2016-10-07T12:47:31.849Z,1024.33
2016-10-07T12:52:31.793Z,1024.36
2016-10-07T12:57:31.737Z,1024.35
2016-10-07T13:02:31.684Z,1024.32
2016-10-07T13:07:31.630Z,1024.34
2016-10-07T13:12:31.576Z,1024.34
2016-10-07T13:17:31.523Z,1024.24
2016-10-07T13:22:31.466Z,1024.27
2016-10-07T13:27:31.415Z,1024.21
2016-10-07T13:32:31.363Z,1024.24
2016-10-07T13:37:31.307Z,1024.24
2016-10-07T13:42:31.254Z,1024.25
2016-10-07T13:47:31.197Z,1024.18
2016-10-07T13:52:31.143Z,1024.38
2016-10-07T13:57:31.087Z,1024.15
2016-10-07T14:02:31.030Z,1024.19
2016-10-07T14:07:30.982Z,1024.14
2016-10-07T14:12:30.923Z,1024.22
2016-10-07T14:17:30.874Z,1024.19
2016-10-07T14:22:30.821Z,1024.23
2016-10-07T14:27:30.767Z,1024.31
2016-10-07T14:32:30.715Z,1024.21
2016-10-07T14:37:30.662Z,1024.2
2016-10-07T14:42:30.609Z,1024.17
2016-10-07T14:47:30.557Z,1024.17
2016-10-07T14:52:30.505Z,1024.2
2016-10-07T14:57:30.453Z,1024.17
2016-10-07T15:02:30.401Z,1024.16
2016-10-07T15:07:30.353Z,1024.1
2016-10-07T15:12:30.299Z,1024.11
2016-10-07T15:17:30.248Z,1024.1
2016-10-07T15:22:30.196Z,1024.09
2016-10-07T15:27:30.144Z,1024.04
2016-10-07T15:32:30.094Z,1024.01
2016-10-07T15:37:30.038Z,1024.02
2016-10-07T15:42:29.988Z,1024
2016-10-07T15:47:29.934Z,1024.06
2016-10-07T15:52:29.881Z,1024.02
2016-10-07T15:57:29.827Z,1024.02
2016-10-07T16:02:29.775Z,1023.98
2016-10-07T16:07:29.728Z,1024.09
2016-10-07T16:12:29.676Z,1024.17
2016-10-07T16:17:29.623Z,1024.23
2016-10-07T16:22:29.577Z,1024.22
2016-10-07T16:27:29.525Z,1024.25
2016-10-07T16:32:29.477Z,1024.29
2016-10-07T16:37:29.427Z,1024.33
2016-10-07T16:42:29.380Z,1024.41
2016-10-07T16:47:29.329Z,1024.34
2016-10-07T16:52:29.283Z,1024.43
2016-10-07T16:57:29.235Z,1024.48
2016-10-07T17:02:29.183Z,1024.53
2016-10-07T17:07:29.134Z,1024.54
2016-10-07T17:12:29.087Z,1024.57
2016-10-07T17:17:29.038Z,1024.56
2016-10-07T17:22:28.990Z,1024.55
2016-10-07T17:27:28.950Z,1024.65
2016-10-07T17:32:28.888Z,1024.66
2016-10-07T17:37:28.836Z,1024.72
2016-10-07T17:42:28.788Z,1024.64
2016-10-07T17:47:28.738Z,1024.7
2016-10-07T17:52:28.686Z,1024.61
2016-10-07T17:57:28.636Z,1024.66
2016-10-07T18:02:28.592Z,1024.67
2016-10-07T18:07:28.537Z,1024.69
2016-10-07T18:12:28.488Z,1024.78
2016-10-07T18:17:28.443Z,1024.84
2016-10-07T18:22:28.391Z,1024.84
2016-10-07T18:27:28.339Z,1024.81
2016-10-07T18:32:28.286Z,1024.86
2016-10-07T18:37:28.234Z,1024.76
2016-10-07T18:42:28.186Z,1024.69
2016-10-07T18:47:28.132Z,1024.65
2016-10-07T18:52:28.079Z,1024.76
2016-10-07T18:57:28.030Z,1024.71
2016-10-07T19:02:27.982Z,1024.74
2016-10-07T19:07:27.927Z,1024.76
2016-10-07T19:12:27.881Z,1024.81
2016-10-07T19:17:27.827Z,1024.79
2016-10-07T19:22:27.777Z,1024.78
2016-10-07T19:27:27.724Z,1024.82
2016-10-07T19:32:27.673Z,1024.82
2016-10-07T19:37:27.625Z,1024.8
2016-10-07T19:42:27.573Z,1024.85
2016-10-07T19:47:27.521Z,1024.86
2016-10-07T19:52:27.470Z,1024.9
2016-10-07T19:57:27.468Z,1024.94
2016-10-07T20:02:27.373Z,1024.94
2016-10-07T20:07:27.317Z,1024.92
2016-10-07T20:12:27.267Z,1024.9
2016-10-07T20:17:27.217Z,1024.83
2016-10-07T20:22:27.169Z,1024.88
2016-10-07T20:27:27.122Z,1024.94
2016-10-07T20:32:27.071Z,1024.98
2016-10-07T20:37:27.023Z,1025.04
2016-10-07T20:42:26.973Z,1025.12
2016-10-07T20:47:26.929Z,1025.17
2016-10-07T20:52:26.877Z,1025.16
2016-10-07T20:57:26.825Z,1025.18
2016-10-07T21:02:26.775Z,1025.22
2016-10-07T21:07:26.735Z,1025.19
2016-10-07T21:12:26.679Z,1025.17
2016-10-07T21:17:26.627Z,1025.24
2016-10-07T21:22:26.579Z,1025.22
2016-10-07T21:27:26.531Z,1025.21
2016-10-07T21:32:26.483Z,1025.19
2016-10-07T21:37:26.432Z,1025.19
2016-10-07T21:42:26.383Z,1025.22
2016-10-07T21:47:26.338Z,1025.21
2016-10-07T21:52:26.283Z,1025.23
2016-10-07T21:57:26.234Z,1025.23
2016-10-07T22:02:26.184Z,1025.17
2016-10-07T22:07:26.144Z,1025.16
2016-10-07T22:12:26.084Z,1025.2
2016-10-07T22:17:26.034Z,1025.23
2016-10-07T22:22:25.984Z,1025.21
2016-10-07T22:27:25.938Z,1025.16
2016-10-07T22:32:25.884Z,1025.18
2016-10-07T22:37:25.834Z,1025.2
2016-10-07T22:42:25.788Z,1025.17
2016-10-07T22:47:25.733Z,1025.13
2016-10-07T22:52:25.684Z,1025.19
2016-10-07T22:57:25.632Z,1025.21
2016-10-07T23:02:25.584Z,1025.19
2016-10-07T23:07:25.530Z,1025.26
2016-10-07T23:12:25.479Z,1025.32
2016-10-07T23:17:25.429Z,1025.29
2016-10-07T23:22:25.377Z,1025.34
2016-10-07T23:27:25.325Z,1025.35
2016-10-07T23:32:25.273Z,1025.36
2016-10-07T23:37:25.219Z,1025.39
2016-10-07T23:42:25.168Z,1025.4
2016-10-07T23:47:25.115Z,1025.49
2016-10-07T23:52:25.063Z,1025.57
2016-10-07T23:57:25.015Z,1025.56
